createdAt,value
2018-02-09T00:01:10.988Z,23.33
2018-02-09T00:03:39.195Z,26.10
2018-02-09T00:06:06.631Z,25.47
2018-02-09T00:08:34.079Z,24.53
2018-02-09T00:11:01.524Z,24.30
2018-02-09T00:13:29.735Z,26.10
2018-02-09T00:15:57.166Z,24.33
2018-02-09T00:18:24.603Z,23.53
2018-02-09T00:20:52.039Z,23.90
2018-02-09T00:23:19.482Z,25.20
2018-02-09T00:25:46.921Z,26.00
2018-02-09T00:28:15.151Z,27.90
2018-02-09T00:30:42.582Z,27.87
2018-02-09T00:33:10.027Z,28.67
2018-02-09T00:35:37.462Z,28.47
2018-02-09T00:38:05.682Z,26.47
2018-02-09T00:40:33.114Z,29.13
2018-02-09T00:43:00.559Z,26.67
2018-02-09T00:45:28.003Z,27.80
2018-02-09T00:47:56.214Z,25.70
2018-02-09T00:50:23.661Z,26.47
2018-02-09T00:52:51.108Z,25.23
2018-02-09T00:55:18.538Z,25.40
2018-02-09T00:57:46.745Z,30.53
2018-02-09T01:00:14.958Z,27.50
2018-02-09T01:02:42.394Z,26.10
2018-02-09T01:05:09.834Z,27.43
2018-02-09T01:07:37.276Z,26.57
2018-02-09T01:10:05.480Z,25.97
2018-02-09T01:12:33.689Z,27.23
2018-02-09T01:15:01.902Z,28.37
2018-02-09T01:17:29.326Z,28.33
2018-02-09T01:19:56.766Z,26.50
2018-02-09T01:22:24.199Z,26.67
2018-02-09T01:24:51.690Z,27.13
2018-02-09T01:27:19.129Z,28.23
2018-02-09T01:29:46.570Z,28.23
2018-02-09T01:32:14.006Z,27.00
2018-02-09T01:34:41.455Z,27.90
2018-02-09T01:37:08.919Z,26.77
2018-02-09T01:39:37.127Z,25.50
2018-02-09T01:42:04.566Z,26.37
2018-02-09T01:44:32.027Z,27.40
2018-02-09T01:47:00.242Z,26.27
2018-02-09T01:49:27.807Z,25.73
2018-02-09T01:51:56.011Z,27.07
2018-02-09T01:54:23.459Z,23.87
2018-02-09T01:56:50.894Z,25.80
2018-02-09T01:59:18.330Z,25.27
2018-02-09T02:01:45.834Z,26.37
2018-02-09T02:04:13.278Z,28.20
2018-02-09T02:06:40.767Z,28.20
2018-02-09T02:09:08.191Z,28.30
2018-02-09T02:11:35.625Z,29.00
2018-02-09T02:14:03.153Z,27.80
2018-02-09T02:16:30.697Z,26.67
2018-02-09T02:18:58.382Z,28.00
2018-02-09T02:21:26.730Z,27.33
2018-02-09T02:23:54.943Z,28.90
2018-02-09T02:26:22.382Z,27.70
2018-02-09T02:28:49.823Z,27.40
2018-02-09T02:31:17.263Z,26.40
2018-02-09T02:33:44.691Z,28.63
2018-02-09T02:36:12.266Z,27.20
2018-02-09T02:38:39.702Z,29.00
2018-02-09T02:41:07.325Z,27.40
2018-02-09T02:43:34.755Z,25.53
2018-02-09T02:46:02.204Z,24.93
2018-02-09T02:48:30.404Z,26.30
2018-02-09T02:50:58.622Z,26.53
2018-02-09T02:53:26.056Z,25.37
2018-02-09T02:55:53.500Z,25.37
2018-02-09T02:58:20.939Z,25.20
2018-02-09T03:00:48.384Z,25.53
2018-02-09T03:03:15.823Z,23.30
2018-02-09T03:05:43.263Z,23.77
2018-02-09T03:08:10.712Z,25.83
2018-02-09T03:10:38.907Z,27.57
2018-02-09T03:13:07.996Z,25.37
2018-02-09T03:15:36.323Z,27.47
2018-02-09T03:18:04.539Z,26.10
2018-02-09T03:20:31.972Z,27.33
2018-02-09T03:22:59.420Z,27.07
2018-02-09T03:25:26.855Z,25.77
2018-02-09T03:27:55.069Z,26.77
2018-02-09T03:30:23.272Z,27.70
2018-02-09T03:32:50.719Z,25.60
2018-02-09T03:35:18.155Z,26.90
2018-02-09T03:37:45.598Z,26.60
2018-02-09T03:40:13.040Z,27.40
2018-02-09T03:42:40.490Z,29.07
2018-02-09T03:45:07.924Z,28.90
2018-02-09T03:47:35.367Z,26.67
2018-02-09T03:50:02.803Z,26.83
2018-02-09T03:52:30.247Z,26.80
2018-02-09T03:54:57.687Z,28.13
2018-02-09T03:57:25.131Z,26.10
2018-02-09T03:59:52.567Z,27.30
2018-02-09T04:02:20.016Z,27.30
2018-02-09T04:04:48.220Z,28.43
2018-02-09T04:07:16.443Z,26.90
2018-02-09T04:09:43.907Z,26.10
2018-02-09T04:12:12.122Z,24.10
2018-02-09T04:14:39.565Z,27.17
2018-02-09T04:17:07.015Z,27.90
2018-02-09T04:19:34.451Z,27.63
2018-02-09T04:22:02.663Z,26.00
2018-02-09T04:24:30.100Z,24.77
2018-02-09T04:26:57.543Z,29.00
2018-02-09T04:29:24.983Z,28.30
2018-02-09T04:31:53.192Z,25.20
2018-02-09T04:34:21.434Z,25.90
2018-02-09T04:36:48.863Z,25.00
2018-02-09T04:39:17.067Z,25.30
2018-02-09T04:41:45.279Z,27.20
2018-02-09T04:44:13.479Z,28.20
2018-02-09T04:46:40.920Z,28.07
2018-02-09T04:49:08.355Z,25.33
2018-02-09T04:51:35.804Z,27.70
2018-02-09T04:54:03.243Z,26.50
2018-02-09T04:56:30.694Z,24.40
2018-02-09T04:58:58.135Z,26.77
2018-02-09T05:01:25.575Z,27.67
2018-02-09T05:03:53.028Z,25.60
2018-02-09T05:06:21.232Z,27.27
2018-02-09T05:08:48.680Z,25.30
2018-02-09T05:11:16.120Z,28.30
2018-02-09T05:13:43.563Z,25.30
2018-02-09T05:16:11.771Z,23.53
2018-02-09T05:18:39.975Z,26.03
2018-02-09T05:21:07.412Z,28.40
2018-02-09T05:23:34.856Z,26.20
2018-02-09T05:26:02.292Z,26.87
2018-02-09T05:28:30.505Z,28.07
2018-02-09T05:30:57.947Z,27.23
2018-02-09T05:33:25.396Z,28.30
2018-02-09T05:35:52.835Z,25.80
2018-02-09T05:38:21.052Z,27.10
2018-02-09T05:40:48.496Z,26.30
2018-02-09T05:43:15.943Z,26.20
2018-02-09T05:45:43.386Z,28.03
2018-02-09T05:48:11.597Z,28.70
2018-02-09T05:50:39.080Z,24.87
2018-02-09T05:53:06.527Z,28.60
2018-02-09T05:55:34.743Z,37.33
2018-02-09T05:58:02.959Z,37.87
2018-02-09T06:00:30.399Z,36.83
2018-02-09T06:02:57.851Z,35.10
2018-02-09T06:05:25.288Z,27.90
2018-02-09T06:07:52.784Z,29.90
2018-02-09T06:10:20.176Z,27.07
2018-02-09T06:12:47.619Z,26.33
2018-02-09T06:15:15.824Z,27.60
2018-02-09T06:17:44.035Z,28.60
2018-02-09T06:20:11.476Z,28.77
2018-02-09T06:22:38.919Z,26.97
2018-02-09T06:25:06.357Z,30.20
2018-02-09T06:27:34.608Z,28.67
2018-02-09T06:30:02.050Z,26.80
2018-02-09T06:32:30.248Z,27.67
2018-02-09T06:34:57.695Z,26.47
2018-02-09T06:37:25.135Z,27.60
2018-02-09T06:39:52.887Z,29.97
2018-02-09T06:42:21.091Z,25.90
2018-02-09T06:44:49.307Z,26.77
2018-02-09T06:47:16.743Z,23.10
2018-02-09T06:49:44.196Z,26.03
2018-02-09T06:52:11.635Z,30.87
2018-02-09T06:54:39.847Z,28.57
2018-02-09T06:57:07.291Z,26.40
2018-02-09T06:59:34.736Z,30.90
2018-02-09T07:02:02.179Z,30.97
2018-02-09T07:04:30.391Z,27.93
2018-02-09T07:06:57.836Z,27.77
2018-02-09T07:09:25.280Z,26.63
2018-02-09T07:11:52.723Z,28.13
2018-02-09T07:14:20.191Z,28.37
2018-02-09T07:16:48.399Z,28.50
2018-02-09T07:19:16.599Z,26.90
2018-02-09T07:21:44.835Z,26.90
2018-02-09T07:24:12.251Z,27.47
2018-02-09T07:26:39.691Z,27.97
2018-02-09T07:29:07.132Z,27.20
2018-02-09T07:31:35.339Z,27.90
2018-02-09T07:34:02.777Z,26.33
2018-02-09T07:36:30.219Z,25.50
2018-02-09T07:38:57.659Z,24.77
2018-02-09T07:41:25.872Z,25.30
2018-02-09T07:43:54.075Z,23.30
2018-02-09T07:46:22.291Z,29.90
2018-02-09T07:48:49.727Z,24.90
2018-02-09T07:51:17.172Z,24.40
2018-02-09T07:53:44.612Z,23.70
2018-02-09T07:56:12.823Z,25.10
2018-02-09T07:58:40.265Z,25.27
2018-02-09T08:01:07.716Z,22.70
2018-02-09T08:03:35.150Z,26.07
2018-02-09T08:06:03.362Z,21.67
2018-02-09T08:08:30.795Z,27.80
2018-02-09T08:10:58.241Z,26.90
2018-02-09T08:13:25.675Z,27.23
2018-02-09T08:15:53.124Z,24.67
2018-02-09T08:18:20.568Z,26.83
2018-02-09T08:20:48.020Z,22.97
2018-02-09T08:23:16.228Z,23.77
2018-02-09T08:25:44.427Z,27.20
2018-02-09T08:28:12.634Z,24.53
2018-02-09T08:30:40.079Z,25.80
2018-02-09T08:33:07.512Z,25.83
2018-02-09T08:35:34.959Z,21.63
2018-02-09T08:38:03.165Z,22.93
2018-02-09T08:40:31.372Z,23.70
2018-02-09T08:42:58.813Z,24.23
2018-02-09T08:45:26.264Z,22.60
2018-02-09T08:47:53.695Z,25.70
2018-02-09T08:50:21.947Z,22.93
2018-02-09T08:52:49.391Z,22.73
2018-02-09T08:55:16.828Z,22.33
2018-02-09T08:57:44.272Z,20.90
2018-02-09T09:00:11.711Z,22.10
2018-02-09T09:02:39.151Z,22.20
2018-02-09T09:05:06.587Z,23.13
2018-02-09T09:07:34.799Z,22.67
2018-02-09T09:10:02.238Z,24.00
2018-02-09T09:12:29.679Z,22.77
2018-02-09T09:14:57.115Z,22.73
2018-02-09T09:17:24.563Z,22.43
2018-02-09T09:19:52.003Z,22.30
2018-02-09T09:22:19.453Z,22.93
2018-02-09T09:24:46.879Z,20.97
2018-02-09T09:27:14.334Z,28.10
2018-02-09T09:29:41.771Z,29.12
2018-02-09T09:32:09.215Z,27.83
2018-02-09T09:34:36.658Z,21.90
2018-02-09T09:37:04.103Z,19.93
2018-02-09T09:39:31.544Z,22.77
2018-02-09T09:41:58.989Z,24.17
2018-02-09T09:44:26.423Z,24.00
2018-02-09T09:46:53.902Z,21.10
2018-02-09T09:49:21.335Z,23.63
2018-02-09T09:51:48.780Z,20.90
2018-02-09T09:54:16.216Z,21.93
2018-02-09T09:56:44.424Z,21.63
2018-02-09T09:59:11.859Z,21.70
2018-02-09T10:01:39.312Z,22.13
2018-02-09T10:04:06.768Z,18.40
2018-02-09T10:06:34.983Z,22.27
2018-02-09T10:09:03.186Z,21.60
2018-02-09T10:11:31.395Z,21.23
2018-02-09T10:13:58.855Z,22.10
2018-02-09T10:16:27.072Z,21.20
2018-02-09T10:18:55.275Z,19.90
2018-02-09T10:21:22.727Z,24.27
2018-02-09T10:23:50.172Z,20.60
2018-02-09T10:26:17.620Z,20.27
2018-02-09T10:28:45.064Z,19.07
2018-02-09T10:31:12.500Z,20.37
2018-02-09T10:33:39.962Z,21.33
2018-02-09T10:36:08.152Z,21.07
2018-02-09T10:38:36.363Z,21.17
2018-02-09T10:41:03.799Z,23.57
2018-02-09T10:43:31.280Z,21.07
2018-02-09T10:45:58.731Z,21.30
2018-02-09T10:48:26.176Z,20.83
2018-02-09T10:50:53.611Z,22.57
2018-02-09T10:53:21.056Z,21.60
2018-02-09T10:55:49.265Z,22.47
2018-02-09T10:58:17.467Z,23.07
2018-02-09T11:00:51.462Z,21.70
2018-02-09T11:03:18.920Z,21.77
2018-02-09T11:05:46.355Z,20.07
2018-02-09T11:08:13.799Z,19.50
2018-02-09T11:10:47.179Z,21.37
2018-02-09T11:13:16.203Z,23.40
2018-02-09T11:15:43.641Z,21.03
2018-02-09T11:18:11.088Z,22.70
2018-02-09T11:20:38.533Z,22.40
2018-02-09T11:23:06.744Z,22.13
2018-02-09T11:25:34.946Z,21.47
2018-02-09T11:28:03.156Z,22.73
2018-02-09T11:30:30.595Z,20.47
2018-02-09T11:32:58.052Z,23.40
2018-02-09T11:35:25.487Z,22.47
2018-02-09T11:37:53.682Z,22.37
2018-02-09T11:40:21.903Z,23.13
2018-02-09T11:42:49.344Z,23.60
2018-02-09T11:45:16.780Z,21.33
2018-02-09T11:47:44.215Z,24.07
2018-02-09T11:50:12.423Z,23.90
2018-02-09T11:52:40.627Z,22.10
2018-02-09T11:55:08.832Z,24.77
2018-02-09T11:57:37.039Z,24.57
2018-02-09T12:00:05.254Z,24.33
2018-02-09T12:02:32.688Z,29.73
2018-02-09T12:05:01.641Z,30.37
2018-02-09T12:07:29.844Z,27.87
2018-02-09T12:09:58.056Z,27.10
2018-02-09T12:12:26.260Z,24.10
2018-02-09T12:14:54.472Z,27.90
2018-02-09T12:17:21.919Z,30.95
2018-02-09T12:19:49.364Z,29.98
2018-02-09T12:22:16.819Z,30.23
2018-02-09T12:24:44.263Z,31.30
2018-02-09T12:27:11.745Z,30.60
2018-02-09T12:29:39.156Z,28.35
2018-02-09T12:32:07.362Z,29.80
2018-02-09T12:34:35.571Z,29.77
2018-02-09T12:37:03.779Z,31.23
2018-02-09T12:39:31.223Z,28.40
2018-02-09T12:41:58.672Z,29.55
2018-02-09T12:44:26.110Z,25.07
2018-02-09T12:46:53.562Z,23.23
2018-02-09T12:49:20.987Z,24.87
2018-02-09T12:51:48.439Z,22.80
2018-02-09T12:54:15.880Z,23.93
2018-02-09T12:56:43.358Z,24.43
2018-02-09T12:59:11.550Z,23.13
2018-02-09T13:01:39.755Z,23.40
2018-02-09T13:04:07.183Z,23.23
2018-02-09T13:06:34.627Z,23.53
2018-02-09T13:09:02.065Z,22.93
2018-02-09T13:11:29.507Z,22.30
2018-02-09T13:13:56.948Z,22.10
2018-02-09T13:16:24.398Z,21.00
2018-02-09T13:18:51.833Z,20.77
2018-02-09T13:21:20.951Z,24.83
2018-02-09T13:24:00.944Z,24.10
2018-02-09T13:26:28.396Z,23.40
2018-02-09T13:28:59.791Z,22.90
2018-02-09T13:31:28.022Z,24.00
2018-02-09T13:33:55.443Z,21.97
2018-02-09T13:36:34.911Z,21.47
2018-02-09T13:39:02.351Z,30.17
2018-02-09T13:41:29.803Z,30.27
2018-02-09T13:43:57.247Z,30.62
2018-02-09T13:46:24.701Z,29.12
2018-02-09T13:48:52.146Z,28.13
2018-02-09T13:51:21.166Z,29.63
2018-02-09T13:53:48.632Z,29.90
2018-02-09T13:56:16.849Z,28.90
2018-02-09T13:58:44.287Z,28.65
2018-02-09T14:01:11.743Z,30.10
2018-02-09T14:03:39.207Z,30.85
2018-02-09T14:06:06.660Z,30.10
2018-02-09T14:08:34.863Z,31.35
2018-02-09T14:11:02.311Z,33.08
2018-02-09T14:13:29.748Z,30.10
2018-02-09T14:15:57.208Z,40.75
2018-02-09T14:18:24.650Z,35.80
2018-02-09T14:20:52.094Z,30.92
2018-02-09T14:23:19.531Z,30.48
2018-02-09T14:25:47.736Z,30.83
2018-02-09T14:28:15.947Z,31.17
2018-02-09T14:30:43.387Z,31.00
2018-02-09T14:33:10.863Z,30.42
2018-02-09T14:35:38.299Z,28.00
2018-02-09T14:38:05.751Z,29.00
2018-02-09T14:40:33.966Z,32.63
2018-02-09T14:43:01.411Z,31.20
2018-02-09T14:45:28.875Z,31.27
2018-02-09T14:47:56.315Z,30.45
2018-02-09T14:50:23.755Z,29.60
2018-02-09T14:52:51.214Z,30.12
2018-02-09T14:55:18.652Z,30.75
2018-02-09T14:57:46.108Z,31.65
2018-02-09T15:00:13.569Z,30.65
2018-02-09T15:02:40.991Z,30.15
2018-02-09T15:05:08.443Z,34.30
2018-02-09T15:07:35.883Z,33.70
2018-02-09T15:10:03.324Z,31.50
2018-02-09T15:12:31.540Z,30.48
2018-02-09T15:14:58.979Z,31.45
2018-02-09T15:17:26.427Z,32.45
2018-02-09T15:19:53.872Z,31.42
2018-02-09T15:22:21.315Z,31.67
2018-02-09T15:24:48.752Z,32.00
2018-02-09T15:27:16.208Z,30.98
2018-02-09T15:29:43.649Z,30.95
2018-02-09T15:32:11.095Z,32.33
2018-02-09T15:34:38.532Z,32.28
2018-02-09T15:37:05.979Z,30.73
2018-02-09T15:39:33.430Z,30.10
2018-02-09T15:42:00.880Z,33.08
2018-02-09T15:44:28.311Z,30.67
2018-02-09T15:46:55.767Z,30.75
2018-02-09T15:49:23.207Z,32.00
2018-02-09T15:51:50.652Z,31.50
2018-02-09T15:54:18.092Z,32.45
2018-02-09T15:56:46.308Z,33.17
2018-02-09T15:59:13.743Z,31.43
2018-02-09T16:01:41.195Z,31.27
2018-02-09T16:04:08.637Z,31.50
2018-02-09T16:06:36.851Z,32.60
2018-02-09T16:09:04.308Z,30.98
2018-02-09T16:11:32.523Z,31.85
2018-02-09T16:14:00.003Z,34.35
2018-02-09T16:16:27.407Z,32.15
2018-02-09T16:18:54.848Z,32.67
2018-02-09T16:21:23.051Z,31.67
2018-02-09T16:23:51.268Z,34.08
2018-02-09T16:26:18.720Z,34.60
2018-02-09T16:28:46.988Z,34.00
2018-02-09T16:31:14.423Z,34.58
2018-02-09T16:33:41.868Z,33.13
2018-02-09T16:36:09.308Z,33.03
2018-02-09T16:38:36.752Z,33.97
2018-02-09T16:41:04.955Z,32.10
2018-02-09T16:43:33.175Z,34.85
2018-02-09T16:46:00.611Z,33.30
2018-02-09T16:48:28.055Z,34.23
2018-02-09T16:50:55.503Z,33.05
2018-02-09T16:53:22.954Z,31.95
2018-02-09T16:55:50.392Z,35.22
2018-02-09T16:58:17.835Z,30.83
2018-02-09T17:00:45.266Z,34.03
2018-02-09T17:03:12.730Z,34.22
2018-02-09T17:05:40.160Z,32.65
2018-02-09T17:08:07.608Z,33.28
2018-02-09T17:10:35.055Z,30.90
2018-02-09T17:13:02.509Z,37.30
2018-02-09T17:15:29.939Z,43.53
2018-02-09T17:17:57.388Z,46.90
2018-02-09T17:20:24.827Z,45.88
2018-02-09T17:22:52.336Z,37.90
2018-02-09T17:25:20.551Z,41.42
2018-02-09T17:27:48.008Z,71.12
2018-02-09T17:30:16.216Z,61.63
2018-02-09T17:32:44.416Z,48.95
2018-02-09T17:35:12.639Z,54.75
2018-02-09T17:37:40.080Z,50.33
2018-02-09T17:40:08.296Z,42.07
2018-02-09T17:42:35.741Z,36.60
2018-02-09T17:45:03.189Z,35.08
2018-02-09T17:47:30.611Z,35.50
2018-02-09T17:49:58.063Z,33.20
2018-02-09T17:52:25.502Z,33.28
2018-02-09T17:54:52.967Z,33.80
2018-02-09T17:57:20.399Z,35.22
2018-02-09T17:59:48.610Z,35.50
2018-02-09T18:02:16.056Z,37.07
2018-02-09T18:04:43.508Z,35.35
2018-02-09T18:07:11.712Z,35.25
2018-02-09T18:09:39.927Z,38.47
2018-02-09T18:12:07.359Z,37.47
2018-02-09T18:14:34.821Z,35.00
2018-02-09T18:17:02.264Z,37.60
2018-02-09T18:19:29.711Z,37.47
2018-02-09T18:21:57.148Z,35.20
2018-02-09T18:24:24.632Z,37.43
2018-02-09T18:26:52.047Z,29.37
2018-02-09T18:29:19.495Z,38.90
2018-02-09T18:31:46.939Z,40.05
2018-02-09T18:34:14.379Z,42.65
2018-02-09T18:36:41.820Z,38.33
2018-02-09T18:39:09.255Z,39.08
2018-02-09T18:41:36.699Z,40.65
2018-02-09T18:44:04.140Z,33.37
2018-02-09T18:46:34.483Z,30.60
2018-02-09T18:49:02.683Z,28.60
2018-02-09T18:51:30.892Z,30.67
2018-02-09T18:53:58.328Z,29.67
2018-02-09T18:56:25.775Z,27.17
2018-02-09T18:58:53.258Z,30.00
2018-02-09T19:01:21.428Z,29.97
2018-02-09T19:03:49.626Z,29.80
2018-02-09T19:06:17.078Z,31.37
2018-02-09T19:08:44.516Z,30.07
2018-02-09T19:11:11.955Z,31.17
2018-02-09T19:13:40.160Z,32.73
2018-02-09T19:16:08.370Z,29.70
2018-02-09T19:18:36.572Z,29.83
2018-02-09T19:21:04.015Z,26.00
2018-02-09T19:23:31.451Z,31.43
2018-02-09T19:25:58.905Z,27.73
2018-02-09T19:28:26.392Z,30.63
2018-02-09T19:30:53.827Z,29.63
2018-02-09T19:33:21.276Z,29.83
2018-02-09T19:35:48.712Z,26.40
2018-02-09T19:38:16.928Z,29.27
2018-02-09T19:40:44.360Z,26.63
2018-02-09T19:43:11.808Z,30.03
2018-02-09T19:45:39.248Z,28.80
2018-02-09T19:48:07.460Z,28.13
2018-02-09T19:50:35.664Z,29.47
2018-02-09T19:53:03.112Z,25.70
2018-02-09T19:55:30.696Z,26.60
2018-02-09T19:57:58.215Z,27.63
2018-02-09T20:00:25.575Z,27.57
2018-02-09T20:02:53.788Z,28.17
2018-02-09T20:05:21.228Z,28.17
2018-02-09T20:07:48.671Z,27.23
2018-02-09T20:10:16.111Z,27.50
2018-02-09T20:12:44.324Z,29.00
2018-02-09T20:15:12.527Z,30.37
2018-02-09T20:17:39.971Z,28.47
2018-02-09T20:20:07.411Z,27.50
2018-02-09T20:22:34.885Z,30.67
2018-02-09T20:25:03.051Z,32.43
2018-02-09T20:27:31.267Z,29.17
2018-02-09T20:29:58.749Z,29.30
2018-02-09T20:32:26.940Z,30.43
2018-02-09T20:34:54.383Z,31.37
2018-02-09T20:37:21.829Z,29.47
2018-02-09T20:39:49.268Z,26.30
2018-02-09T20:42:16.708Z,27.27
2018-02-09T20:44:44.919Z,31.43
2018-02-09T20:47:12.355Z,33.60
2018-02-09T20:49:39.808Z,29.27
2018-02-09T20:52:07.248Z,32.57
2018-02-09T20:54:35.460Z,33.37
2018-02-09T20:57:02.911Z,30.57
2018-02-09T20:59:30.343Z,30.80
2018-02-09T21:01:57.782Z,29.47
2018-02-09T21:04:25.991Z,28.40
2018-02-09T21:06:53.435Z,28.50
2018-02-09T21:09:20.879Z,28.93
2018-02-09T21:11:48.315Z,30.20
2018-02-09T21:14:16.523Z,29.50
2018-02-09T21:16:44.728Z,29.20
2018-02-09T21:19:12.171Z,30.93
2018-02-09T21:21:39.608Z,27.10
2018-02-09T21:24:07.049Z,27.20
2018-02-09T21:26:34.492Z,26.87
2018-02-09T21:29:01.927Z,31.10
2018-02-09T21:31:29.371Z,28.27
2018-02-09T21:33:56.807Z,28.63
2018-02-09T21:36:24.257Z,27.73
2018-02-09T21:38:52.459Z,32.17
2018-02-09T21:41:20.672Z,30.27
2018-02-09T21:43:48.112Z,30.80
2018-02-09T21:46:15.551Z,28.77
2018-02-09T21:48:42.992Z,29.80
2018-02-09T21:51:11.232Z,30.50
2018-02-09T21:53:38.700Z,26.87
2018-02-09T21:56:06.099Z,28.70
2018-02-09T21:58:33.539Z,28.27
2018-02-09T22:01:01.756Z,30.90
2018-02-09T22:03:29.191Z,30.67
2018-02-09T22:05:56.639Z,27.57
2018-02-09T22:08:24.080Z,30.50
2018-02-09T22:10:52.288Z,27.67
2018-02-09T22:13:19.724Z,30.30
2018-02-09T22:15:47.211Z,26.00
2018-02-09T22:18:14.661Z,29.63
2018-02-09T22:20:42.095Z,24.60
2018-02-09T22:23:10.307Z,25.47
2018-02-09T22:25:37.743Z,28.80
2018-02-09T22:28:05.195Z,29.60
2018-02-09T22:30:32.636Z,27.67
2018-02-09T22:33:00.847Z,28.97
2018-02-09T22:35:28.288Z,27.47
2018-02-09T22:37:55.736Z,28.50
2018-02-09T22:40:23.176Z,27.60
2018-02-09T22:42:51.386Z,29.40
2018-02-09T22:45:18.819Z,27.37
2018-02-09T22:47:46.265Z,27.10
2018-02-09T22:50:14.611Z,27.27
2018-02-09T22:52:42.056Z,28.00
2018-02-09T22:55:09.491Z,29.97
2018-02-09T22:57:37.704Z,28.77
2018-02-09T23:00:05.910Z,28.27
2018-02-09T23:02:33.379Z,29.40
2018-02-09T23:05:00.799Z,28.33
2018-02-09T23:07:28.243Z,27.90
2018-02-09T23:09:56.451Z,27.03
2018-02-09T23:12:23.903Z,27.30
2018-02-09T23:14:51.336Z,28.93
2018-02-09T23:17:18.775Z,25.30
2018-02-09T23:19:46.988Z,28.63
2018-02-09T23:22:14.422Z,28.13
2018-02-09T23:24:41.871Z,28.97
2018-02-09T23:27:09.308Z,30.30
2018-02-09T23:29:36.751Z,29.63
2018-02-09T23:32:04.191Z,24.80
2018-02-09T23:34:31.636Z,26.90
2018-02-09T23:36:59.104Z,28.43
2018-02-09T23:39:26.543Z,28.63
2018-02-09T23:41:53.979Z,28.40
2018-02-09T23:44:21.439Z,25.53
2018-02-09T23:46:48.872Z,29.73
2018-02-09T23:49:16.315Z,27.00
2018-02-09T23:51:43.755Z,27.03
2018-02-09T23:54:11.199Z,27.40
2018-02-09T23:56:39.399Z,26.77
2018-02-09T23:59:07.612Z,25.17
